Georgetown, Colorado
Current Conditions -  °F | °C
As of 9:15 AM on Wednesday 26 Nov 2014 (Local Time) from KCCU Reporting Station
Overcast Overcast  
Wind Chill:   Ceiling: 1000
Heat Index: 27°   Visibility: NA
Dew Point: 21°   Wind: 36mph
Humidity: 80%   Direction: 270°W
Pressure: 30.32"   Gusts: 58mph
Location:  39.71°N, 105.7°W
Report Text: KCCU 261615Z AUTO 27031G50KT SCT004 BKN010 OVC016 M03/M06 A3032 RMK AO2 PWINO
Loading
Personal Weather Stations






























Interactive Weather Map New forecast layout! Learn more

10-Day Weather Forecast

Advertisements
Track Severe Weather on mobile